Time;durP1;ratioP1;P1;durP2;ratioP2;P2;SDS_P1;SDS_P2;PMS_P1;PMS_P2;Temp;Humidity;BMP_temperature;BMP_pressure;BME280_temperature;BME280_humidity;BME280_pressure;Samples;Min_cycle;Max_cycle;Signal;HPM_P1;HPM_P2
2022/05/20 00:00:13;;;;;;;2.80;2.60;;;;;;;19.38;72.75;97236.06;5058024;28;20512;-50
2022/05/20 00:02:41;;;;;;;2.50;2.33;;;;;;;19.45;71.59;97244.25;5058086;28;20206;-49
2022/05/20 00:05:08;;;;;;;3.08;2.50;;;;;;;19.49;70.96;97247.38;5058350;28;20234;-48
2022/05/20 00:07:36;;;;;;;1.98;1.83;;;;;;;19.44;71.66;97245.28;5057750;28;20268;-49
2022/05/20 00:10:04;;;;;;;2.95;2.38;;;;;;;19.41;71.88;97236.75;5057985;28;20305;-50
2022/05/20 00:12:30;;;;;;;2.20;2.10;;;;;;;19.50;71.09;97243.69;5050679;28;20225;-49
2022/05/20 00:14:57;;;;;;;3.10;2.40;;;;;;;19.45;71.31;97248.81;5057513;28;20241;-49
2022/05/20 00:17:24;;;;;;;2.30;2.17;;;;;;;19.44;71.64;97247.97;5058215;28;20211;-49
2022/05/20 00:19:52;;;;;;;2.75;2.40;;;;;;;19.42;71.94;97241.94;5057701;28;20218;-48
2022/05/20 00:22:19;;;;;;;2.60;2.30;;;;;;;19.41;72.08;97244.78;5057627;28;20214;-49
2022/05/20 00:27:29;;;;;;;2.50;2.30;;;;;;;19.44;71.80;97239.91;5057590;28;20206;-49
2022/05/20 00:29:57;;;;;;;2.30;2.20;;;;;;;19.43;71.49;97232.03;5057022;28;20633;-48
2022/05/20 00:32:24;;;;;;;3.33;2.35;;;;;;;19.42;71.48;97236.56;5057693;28;20214;-50
2022/05/20 00:34:52;;;;;;;2.55;2.35;;;;;;;19.38;71.79;97238.75;5057550;28;20203;-49
2022/05/20 00:37:18;;;;;;;2.35;2.10;;;;;;;19.36;71.93;97245.31;5056969;28;20207;-50
2022/05/20 00:39:47;;;;;;;2.45;2.33;;;;;;;19.33;72.50;97237.66;5057003;28;20651;-48
2022/05/20 00:42:17;;;;;;;2.40;2.30;;;;;;;19.29;72.92;97241.72;5057320;28;20273;-49
2022/05/20 00:44:44;;;;;;;2.70;2.50;;;;;;;19.26;74.42;97239.41;5043267;28;20254;-49
2022/05/20 00:47:12;;;;;;;2.22;2.13;;;;;;;19.21;74.70;97237.25;5057155;28;20218;-49
2022/05/20 00:49:39;;;;;;;2.70;2.50;;;;;;;19.23;74.27;97234.41;5057131;28;20199;-50
2022/05/20 00:52:09;;;;;;;2.50;2.30;;;;;;;19.24;73.94;97228.00;5057547;28;20207;-49
2022/05/20 00:54:40;;;;;;;2.40;1.83;;;;;;;19.21;73.65;97233.72;5057273;28;20199;-49
2022/05/20 00:57:09;;;;;;;2.78;2.15;;;;;;;19.21;72.72;97229.22;5057115;28;20203;-48
2022/05/20 00:59:37;;;;;;;2.38;2.17;;;;;;;19.13;73.70;97226.59;5057049;28;20214;-49
2022/05/20 01:02:08;;;;;;;2.22;2.13;;;;;;;19.17;72.58;97225.22;5057036;28;20203;-49
2022/05/20 01:04:36;;;;;;;3.03;2.30;;;;;;;19.17;72.64;97221.69;5056957;28;20222;-49
2022/05/20 01:07:03;;;;;;;3.75;2.45;;;;;;;19.14;72.58;97225.59;5057049;28;20215;-50
2022/05/20 01:09:31;;;;;;;4.72;2.10;;;;;;;19.07;72.31;97216.59;5046592;28;20207;-49
2022/05/20 01:11:57;;;;;;;2.15;2.03;;;;;;;19.04;73.27;97224.19;5049654;28;20203;-49
2022/05/20 01:14:26;;;;;;;2.72;2.53;;;;;;;18.96;73.50;97218.88;5056435;28;20210;-49
2022/05/20 01:16:52;;;;;;;2.40;2.30;;;;;;;18.88;74.25;97220.63;5056555;28;20222;-48
2022/05/20 01:19:26;;;;;;;2.90;2.13;;;;;;;18.88;74.55;97217.13;5056523;28;20534;-49
2022/05/20 01:21:53;;;;;;;2.58;2.38;;;;;;;18.88;74.08;97217.94;5056739;28;20203;-50
2022/05/20 01:24:21;;;;;;;2.60;2.40;;;;;;;18.82;74.74;97217.84;5055795;28;20215;-49
2022/05/20 01:26:47;;;;;;;3.45;2.20;;;;;;;18.80;74.11;97210.00;5056731;28;20207;-49
2022/05/20 01:29:14;;;;;;;4.40;2.22;;;;;;;18.77;73.96;97221.06;5058804;28;20212;-49
2022/05/20 01:31:41;;;;;;;3.33;2.75;;;;;;;18.74;74.26;97216.06;5069255;28;20577;-49
2022/05/20 01:34:08;;;;;;;2.42;2.30;;;;;;;18.70;74.43;97220.13;5063661;28;20210;-49
2022/05/20 01:36:36;;;;;;;3.20;2.30;;;;;;;18.65;74.23;97211.78;5059422;28;20207;-49
2022/05/20 01:39:02;;;;;;;3.83;2.42;;;;;;;18.57;75.13;97209.16;5055144;28;20235;-50
2022/05/20 01:41:43;;;;;;;2.75;2.45;;;;;;;18.50;75.46;97212.69;5052468;28;20620;-48
2022/05/20 01:44:13;;;;;;;2.45;2.25;;;;;;;18.51;75.54;97215.25;5055499;28;20522;-48
2022/05/20 01:46:42;;;;;;;2.05;1.95;;;;;;;18.40;76.80;97200.38;5056092;28;20222;-49
2022/05/20 01:49:18;;;;;;;2.17;2.08;;;;;;;18.44;75.75;97205.38;5056174;28;20207;-50
2022/05/20 01:51:49;;;;;;;4.03;2.03;;;;;;;18.42;75.96;97200.22;5036287;28;20227;-49
2022/05/20 01:54:23;;;;;;;5.07;2.13;;;;;;;18.40;76.33;97196.88;5050578;28;20210;-49
2022/05/20 01:56:56;;;;;;;2.22;2.05;;;;;;;18.45;75.02;97197.19;5056114;28;20226;-48
2022/05/20 01:59:26;;;;;;;2.53;2.15;;;;;;;18.45;74.45;97194.50;5055358;28;20218;-49
2022/05/20 02:01:56;;;;;;;2.63;2.10;;;;;;;18.40;75.07;97187.00;5045891;28;20218;-49
2022/05/20 02:04:28;;;;;;;2.33;2.22;;;;;;;18.32;76.02;97188.88;5055469;28;20659;-48
2022/05/20 02:07:00;;;;;;;2.58;2.38;;;;;;;18.26;76.46;97192.28;5055945;28;20213;-49
2022/05/20 02:09:31;;;;;;;2.45;1.98;;;;;;;18.28;75.28;97188.41;5055532;28;20207;-49
2022/05/20 02:11:59;;;;;;;2.25;2.15;;;;;;;18.27;75.68;97189.44;5056242;28;20200;-50
2022/05/20 02:14:28;;;;;;;2.45;2.25;;;;;;;18.16;77.25;97183.66;5061219;28;20191;-48
2022/05/20 02:16:59;;;;;;;2.50;2.30;;;;;;;18.16;76.06;97183.66;5063283;28;20294;-48
2022/05/20 02:19:29;;;;;;;2.20;2.00;;;;;;;18.19;75.02;97177.94;5055380;28;20214;-48
2022/05/20 02:21:57;;;;;;;4.50;2.20;;;;;;;18.13;75.30;97179.50;5054260;28;20257;-50
2022/05/20 02:24:27;;;;;;;2.88;2.00;;;;;;;18.04;76.46;97182.38;5054776;28;20226;-49
2022/05/20 02:26:57;;;;;;;3.22;2.28;;;;;;;17.92;76.60;97177.41;5055315;28;20226;-49
2022/05/20 02:29:32;;;;;;;2.95;2.30;;;;;;;17.92;76.90;97181.13;5055363;28;20206;-50
2022/05/20 02:32:07;;;;;;;2.35;2.20;;;;;;;17.88;77.15;97173.44;5055440;28;20221;-49
2022/05/20 02:34:35;;;;;;;3.72;2.05;;;;;;;17.92;76.21;97181.97;5055331;28;20215;-49
2022/05/20 02:37:03;;;;;;;2.28;2.13;;;;;;;17.88;76.06;97181.47;5055073;28;20245;-49
2022/05/20 02:39:29;;;;;;;2.35;2.15;;;;;;;17.83;76.21;97181.16;5054428;28;20207;-49
2022/05/20 02:41:57;;;;;;;2.38;1.90;;;;;;;17.76;76.41;97177.50;5055263;28;20217;-49
2022/05/20 02:44:23;;;;;;;3.28;2.40;;;;;;;17.73;76.71;97183.22;5041817;28;20322;-49
2022/05/20 02:46:51;;;;;;;2.83;2.60;;;;;;;17.77;76.95;97181.03;5054985;28;20221;-49
2022/05/20 02:49:18;;;;;;;2.38;2.17;;;;;;;17.73;77.19;97183.22;5054900;28;20536;-48
2022/05/20 02:51:44;;;;;;;2.50;2.28;;;;;;;17.66;77.30;97176.06;5055006;28;20221;-49
2022/05/20 02:54:11;;;;;;;3.47;2.38;;;;;;;17.64;77.53;97175.41;5054905;28;20215;-48
2022/05/20 02:56:38;;;;;;;2.42;2.22;;;;;;;17.55;77.97;97179.91;5054754;28;20637;-49
2022/05/20 03:04:34;;;;;;;3.25;2.20;;;;;;;17.49;77.73;97183.28;5054452;28;20218;-49
2022/05/20 03:07:02;;;;;;;2.35;2.25;;;;;;;17.49;77.42;97174.44;5054836;28;20587;-49
2022/05/20 03:09:29;;;;;;;2.30;2.20;;;;;;;17.48;77.55;97184.28;5054686;28;20509;-50
2022/05/20 03:11:55;;;;;;;3.38;2.40;;;;;;;17.40;78.78;97173.59;5047622;28;20666;-49
2022/05/20 03:14:24;;;;;;;3.67;2.30;;;;;;;17.41;78.81;97176.13;5054882;28;20203;-49
2022/05/20 03:16:52;;;;;;;2.20;2.05;;;;;;;17.45;77.69;97173.94;5041724;28;20207;-49
2022/05/20 03:19:19;;;;;;;2.75;2.55;;;;;;;17.36;79.08;97180.31;5054971;28;20673;-48
2022/05/20 03:21:46;;;;;;;2.97;2.70;;;;;;;17.31;79.22;97177.34;5053852;28;20218;-49
2022/05/20 03:24:13;;;;;;;2.75;2.15;;;;;;;17.23;80.45;97180.03;5046691;28;20293;-48
2022/05/20 03:26:40;;;;;;;4.68;2.65;;;;;;;17.23;79.64;97175.50;5048877;28;20255;-49
2022/05/20 03:29:06;;;;;;;2.70;2.50;;;;;;;17.26;80.15;97175.16;5054958;28;20206;-49
2022/05/20 03:31:35;;;;;;;2.30;2.20;;;;;;;17.20;80.66;97180.38;5054336;28;20217;-49
2022/05/20 03:34:05;;;;;;;2.85;2.50;;;;;;;17.21;79.77;97179.38;5054526;28;20203;-48
2022/05/20 03:36:33;;;;;;;2.95;2.60;;;;;;;17.12;81.31;97177.69;5054852;28;20276;-49
2022/05/20 03:38:59;;;;;;;2.60;2.40;;;;;;;17.08;81.37;97182.56;5053679;28;20242;-48
2022/05/20 03:41:26;;;;;;;2.65;2.35;;;;;;;17.09;80.60;97178.88;5054062;28;20207;-49
2022/05/20 03:43:52;;;;;;;2.83;2.63;;;;;;;17.08;80.95;97177.22;5053767;28;20246;-50
2022/05/20 03:46:19;;;;;;;2.43;2.33;;;;;;;17.10;80.82;97174.38;5064074;28;20207;-49
2022/05/20 03:48:45;;;;;;;4.10;2.85;;;;;;;17.02;81.25;97179.72;5059865;28;20211;-49
2022/05/20 03:51:15;;;;;;;2.70;2.50;;;;;;;17.00;81.90;97176.41;5057743;28;20203;-48
2022/05/20 03:53:42;;;;;;;2.67;2.47;;;;;;;17.07;80.98;97175.56;5054749;28;20211;-49
2022/05/20 03:56:09;;;;;;;3.58;2.67;;;;;;;17.03;82.23;97173.41;5054446;28;20313;-48
2022/05/20 03:58:35;;;;;;;3.15;2.85;;;;;;;17.06;81.78;97173.06;5054205;28;20207;-49
2022/05/20 04:03:53;;;;;;;2.88;2.67;;;;;;;17.12;81.78;97173.19;5032831;28;20221;-48
2022/05/20 04:06:21;;;;;;;2.60;2.50;;;;;;;17.15;81.75;97172.84;5054520;28;20547;-49
2022/05/20 04:08:48;;;;;;;3.03;2.75;;;;;;;17.16;81.96;97171.84;5040935;28;20219;-48
2022/05/20 04:11:16;;;;;;;3.03;2.78;;;;;;;17.16;82.57;97171.84;5054289;28;20207;-49
2022/05/20 04:13:43;;;;;;;4.30;2.70;;;;;;;17.19;81.86;97178.69;5052613;28;20207;-49
2022/05/20 04:16:11;;;;;;;2.60;2.50;;;;;;;17.17;83.15;97180.72;5057892;28;20623;-49
2022/05/20 04:18:40;;;;;;;3.00;2.70;;;;;;;17.20;83.17;97178.53;5057556;28;20203;-49
2022/05/20 04:21:07;;;;;;;3.63;2.53;;;;;;;17.26;82.83;97175.16;5057815;28;20269;-48
2022/05/20 04:23:35;;;;;;;2.72;2.45;;;;;;;17.28;82.95;97175.00;5057475;28;20631;-49
2022/05/20 04:26:01;;;;;;;4.68;2.67;;;;;;;17.31;82.94;97171.97;5057242;28;20247;-49
2022/05/20 04:28:28;;;;;;;3.10;2.80;;;;;;;17.42;82.48;97174.28;5058037;28;20208;-48
2022/05/20 04:30:58;;;;;;;2.35;2.25;;;;;;;17.53;81.69;97176.59;5057805;28;20203;-49
2022/05/20 04:33:24;;;;;;;3.13;2.60;;;;;;;17.57;82.50;97172.56;5055844;28;20654;-48
2022/05/20 04:35:51;;;;;;;2.80;2.58;;;;;;;17.75;80.85;97175.84;5046896;28;20587;-50
2022/05/20 04:38:20;;;;;;;3.22;2.97;;;;;;;18.01;80.39;97180.06;5057471;28;20214;-48
2022/05/20 04:46:56;;;;;;;2.80;2.60;;;;;;;18.13;79.92;97184.84;5057373;28;20639;-48
2022/05/20 04:49:05;;;;;;;2.67;2.40;;;;;;;18.76;76.55;97186.41;5057081;28;20197;-48
2022/05/20 04:51:32;;;;;;;4.63;2.58;;;;;;;18.82;77.59;97191.88;5056722;28;20286;-49
2022/05/20 04:56:45;;;;;;;4.47;2.75;;;;;;;18.92;78.32;97188.13;5057179;28;20244;-49
2022/05/20 04:59:11;;;;;;;2.85;2.63;;;;;;;19.09;77.53;97190.47;5057249;28;20221;-49
2022/05/20 05:01:37;;;;;;;2.83;2.63;;;;;;;19.26;76.91;97196.50;5057246;28;20214;-48
2022/05/20 05:04:04;;;;;;;3.08;2.88;;;;;;;19.46;76.65;97202.16;5056831;28;20207;-49
2022/05/20 05:06:31;;;;;;;3.10;2.90;;;;;;;19.52;76.75;97198.75;5057419;28;20320;-49
2022/05/20 05:08:57;;;;;;;2.92;2.63;;;;;;;19.76;76.26;97199.31;5057158;28;20203;-49
2022/05/20 05:11:24;;;;;;;4.95;2.80;;;;;;;19.90;75.54;97196.78;5055001;28;20214;-49
2022/05/20 05:13:52;;;;;;;3.28;2.60;;;;;;;19.91;75.55;97198.44;5053658;28;20211;-48
2022/05/20 05:16:18;;;;;;;2.90;2.70;;;;;;;20.05;74.62;97202.97;5058544;28;20229;-49
2022/05/20 05:18:45;;;;;;;3.17;2.70;;;;;;;20.21;74.28;97205.41;5056820;28;20646;-49
2022/05/20 05:21:14;;;;;;;3.30;2.90;;;;;;;20.62;72.45;97195.72;5056996;28;20211;-49
2022/05/20 05:23:44;;;;;;;3.90;2.55;;;;;;;20.62;73.76;97194.91;5056261;28;20245;-49
2022/05/20 05:26:11;;;;;;;4.07;3.30;;;;;;;20.96;70.98;97194.19;5056042;28;20235;-48
2022/05/20 05:28:38;;;;;;;5.30;3.33;;;;;;;20.89;73.38;97198.69;5056023;28;20199;-48
2022/05/20 05:31:06;;;;;;;6.28;3.45;;;;;;;21.21;69.90;97206.22;5056717;28;20214;-49
2022/05/20 05:33:33;;;;;;;6.07;3.40;;;;;;;21.45;68.21;97211.13;5056914;28;20203;-49
2022/05/20 05:36:00;;;;;;;5.10;3.30;;;;;;;21.65;66.82;97203.16;5056108;28;20349;-49
2022/05/20 05:38:26;;;;;;;4.15;3.42;;;;;;;21.77;67.62;97205.13;5056629;28;20221;-50
2022/05/20 05:40:55;;;;;;;8.20;3.30;;;;;;;22.12;66.89;97207.78;5058628;28;20241;-49
2022/05/20 05:43:22;;;;;;;5.80;3.58;;;;;;;22.21;64.54;97201.19;5057837;28;20261;-47
2022/05/20 05:45:48;;;;;;;4.05;3.50;;;;;;;22.26;65.52;97204.09;5057951;28;20578;-50
2022/05/20 05:48:17;;;;;;;4.28;3.65;;;;;;;22.25;64.10;97205.97;5055749;28;20587;-49
2022/05/20 05:50:44;;;;;;;4.53;3.28;;;;;;;22.61;63.40;97202.94;5056563;28;20203;-50
2022/05/20 05:53:13;;;;;;;3.40;3.10;;;;;;;22.68;63.11;97206.50;5056734;28;20207;-49
2022/05/20 05:55:42;;;;;;;3.65;3.38;;;;;;;22.88;62.80;97208.41;5056453;28;20610;-48
2022/05/20 05:58:09;;;;;;;3.28;3.00;;;;;;;22.83;62.57;97200.94;5055869;28;20195;-49
2022/05/20 06:00:35;;;;;;;4.07;3.78;;;;;;;22.92;62.32;97204.25;5051931;28;20219;-49
2022/05/20 06:03:02;;;;;;;8.27;3.33;;;;;;;22.98;62.72;97200.72;5062081;28;20543;-49
2022/05/20 06:05:30;;;;;;;3.47;3.28;;;;;;;23.05;63.36;97218.59;5061710;28;20258;-49
2022/05/20 06:07:59;;;;;;;3.72;3.28;;;;;;;23.26;60.90;97199.47;5057812;28;20215;-48
2022/05/20 06:10:26;;;;;;;3.50;3.20;;;;;;;23.54;59.57;97209.22;5043473;28;20294;-47
2022/05/20 06:12:53;;;;;;;4.35;3.25;;;;;;;23.63;59.63;97203.38;5048927;28;20207;-48
2022/05/20 06:15:22;;;;;;;4.85;3.08;;;;;;;23.72;59.99;97202.13;5056466;28;20301;-48
2022/05/20 06:17:49;;;;;;;6.72;3.10;;;;;;;24.06;57.22;97205.53;5056536;28;20635;-47
2022/05/20 06:20:16;;;;;;;3.40;3.20;;;;;;;24.20;58.66;97207.16;5055792;28;20218;-47
2022/05/20 06:22:43;;;;;;;4.10;2.90;;;;;;;24.32;58.36;97210.03;5056762;28;20241;-48
2022/05/20 06:25:11;;;;;;;5.57;3.20;;;;;;;24.52;56.28;97203.47;5056618;28;20239;-48
2022/05/20 06:27:38;;;;;;;3.70;3.40;;;;;;;24.72;54.48;97203.38;5056384;28;20588;-49
2022/05/20 06:30:10;;;;;;;3.92;3.25;;;;;;;25.00;54.94;97197.56;5056709;28;20207;-50
2022/05/20 06:32:36;;;;;;;11.05;4.70;;;;;;;25.47;53.39;97196.91;5063909;28;20219;-49
2022/05/20 06:40:35;;;;;;;4.50;3.00;;;;;;;25.48;52.05;97193.16;5053676;28;20597;-48
2022/05/20 06:43:02;;;;;;;3.78;3.38;;;;;;;25.82;51.09;97199.13;5059862;28;20211;-48
2022/05/20 06:45:31;;;;;;;3.20;2.90;;;;;;;25.74;50.41;97197.53;5049739;28;20257;-48
2022/05/20 06:47:59;;;;;;;5.90;3.10;;;;;;;25.79;50.96;97194.94;5061680;28;20516;-48
2022/05/20 06:50:26;;;;;;;4.97;2.58;;;;;;;25.90;50.28;97193.41;5061462;28;20234;-48
2022/05/20 06:52:55;;;;;;;2.85;2.55;;;;;;;26.62;48.27;97185.16;5053902;28;20635;-48
2022/05/20 06:55:22;;;;;;;5.22;2.67;;;;;;;26.23;47.83;97196.56;5058468;28;20211;-49
2022/05/20 06:57:48;;;;;;;4.00;2.80;;;;;;;26.42;51.18;97194.66;5056613;28;20322;-48
2022/05/20 07:00:16;;;;;;;2.90;2.70;;;;;;;26.48;50.72;97193.72;5048787;28;20734;-49
2022/05/20 07:02:43;;;;;;;3.28;2.97;;;;;;;26.64;49.42;97185.75;5054502;28;20231;-48
2022/05/20 07:05:11;;;;;;;6.45;3.63;;;;;;;26.88;49.37;97188.56;5054027;28;20325;-49
2022/05/20 07:07:38;;;;;;;5.15;2.80;;;;;;;27.34;46.81;97193.25;5050774;28;20212;-48
2022/05/20 07:10:08;;;;;;;4.60;2.83;;;;;;;27.09;47.45;97196.19;5046561;28;20225;-48
2022/05/20 07:12:35;;;;;;;4.63;3.00;;;;;;;27.47;47.09;97188.44;5047562;28;20203;-48
2022/05/20 07:15:03;;;;;;;4.45;2.83;;;;;;;27.38;47.75;97180.84;5055038;28;20218;-49
2022/05/20 07:17:31;;;;;;;2.95;2.70;;;;;;;27.53;46.73;97183.94;5055155;28;20207;-48
2022/05/20 07:19:58;;;;;;;3.80;2.83;;;;;;;27.75;46.12;97195.03;5054754;28;20642;-49
2022/05/20 07:22:25;;;;;;;4.85;3.40;;;;;;;27.93;48.40;97189.44;5054864;28;20206;-48
2022/05/20 07:24:51;;;;;;;5.03;3.00;;;;;;;27.97;46.22;97182.47;5054544;28;20235;-48
2022/05/20 07:27:19;;;;;;;5.50;3.05;;;;;;;28.27;45.75;97166.78;5054500;28;20215;-48
2022/05/20 07:29:46;;;;;;;3.95;3.40;;;;;;;28.31;44.88;97176.13;5054324;28;20226;-48
2022/05/20 07:32:12;;;;;;;4.15;2.80;;;;;;;28.44;46.05;97177.75;5054698;28;20214;-50
2022/05/20 07:34:39;;;;;;;3.80;3.20;;;;;;;28.65;45.17;97177.06;5054818;28;20206;-48
2022/05/20 07:37:06;;;;;;;6.30;3.58;;;;;;;28.70;43.60;97184.53;5034932;28;20199;-48
2022/05/20 07:39:32;;;;;;;3.88;3.42;;;;;;;28.89;43.15;97177.78;5047632;28;20195;-48
2022/05/20 07:41:59;;;;;;;4.50;3.55;;;;;;;28.74;41.83;97172.06;5041381;28;20203;-48
2022/05/20 07:44:27;;;;;;;4.45;3.08;;;;;;;28.73;43.01;97175.88;5054555;28;20207;-49
2022/05/20 07:46:54;;;;;;;4.03;3.30;;;;;;;29.04;44.03;97169.88;5056258;28;20230;-49
2022/05/20 07:49:23;;;;;;;4.85;2.97;;;;;;;29.23;44.08;97175.94;5044772;28;20211;-49
2022/05/20 07:51:52;;;;;;;4.78;3.40;;;;;;;29.20;41.69;97177.22;5058657;28;20213;-49
2022/05/20 07:54:22;;;;;;;4.72;3.30;;;;;;;29.39;43.44;97166.94;5058311;28;20214;-48
2022/05/20 07:56:54;;;;;;;2.80;2.60;;;;;;;29.40;42.58;97163.97;5058051;28;20512;-48
2022/05/20 07:59:24;;;;;;;4.65;3.03;;;;;;;29.72;42.56;97158.72;5057581;28;20214;-49
2022/05/20 08:01:53;;;;;;;4.30;2.90;;;;;;;29.62;44.57;97145.75;5057826;28;20207;-48
2022/05/20 08:07:07;;;;;;;3.95;3.13;;;;;;;29.89;42.16;97145.06;5054190;28;20221;-48
2022/05/20 08:09:35;;;;;;;4.45;3.20;;;;;;;30.03;39.61;97138.13;5058334;28;20211;-50
2022/05/20 08:12:03;;;;;;;3.10;2.90;;;;;;;30.33;40.49;97140.38;5058143;28;20211;-50
2022/05/20 08:14:30;;;;;;;5.07;2.60;;;;;;;30.42;39.17;97145.19;5071983;28;20199;-50
2022/05/20 08:16:58;;;;;;;4.40;3.03;;;;;;;30.22;39.67;97147.63;5073120;28;20199;-50
2022/05/20 08:19:25;;;;;;;6.05;3.13;;;;;;;29.95;39.15;97144.03;5069462;28;20204;-49
2022/05/20 08:21:52;;;;;;;5.53;2.80;;;;;;;30.15;40.43;97138.81;5057901;28;20203;-48
2022/05/20 08:24:19;;;;;;;4.07;3.17;;;;;;;30.04;39.11;97142.53;5056200;28;20210;-48
2022/05/20 08:26:46;;;;;;;5.40;3.10;;;;;;;30.32;40.75;97141.47;5057160;28;20239;-48
2022/05/20 08:29:13;;;;;;;5.03;2.72;;;;;;;30.73;41.58;97134.53;5057449;28;20628;-49
2022/05/20 08:31:39;;;;;;;4.53;3.10;;;;;;;30.54;39.31;97124.00;5057586;28;20271;-50
2022/05/20 08:34:07;;;;;;;4.22;3.00;;;;;;;30.72;38.93;97131.00;5057450;28;20210;-49
2022/05/20 08:36:35;;;;;;;5.03;3.08;;;;;;;30.61;39.28;97124.59;5057365;28;20206;-48
2022/05/20 08:39:02;;;;;;;4.03;3.25;;;;;;;30.90;38.59;97132.50;5057034;28;20222;-50
2022/05/20 08:41:33;;;;;;;5.85;3.53;;;;;;;30.84;38.51;97125.38;5057383;28;20205;-48
2022/05/20 08:44:01;;;;;;;3.40;3.10;;;;;;;30.79;38.05;97125.31;5057272;28;20237;-48
2022/05/20 08:46:30;;;;;;;5.10;3.05;;;;;;;30.57;38.77;97126.19;5056773;28;20218;-49
2022/05/20 08:48:57;;;;;;;4.00;3.70;;;;;;;30.37;39.12;97117.78;5046971;28;20662;-48
2022/05/20 08:51:32;;;;;;;4.22;3.45;;;;;;;29.55;41.64;97126.00;5057187;28;20642;-48
2022/05/20 08:53:58;;;;;;;4.00;3.30;;;;;;;29.92;41.21;97120.81;5057039;28;20213;-49
2022/05/20 08:56:26;;;;;;;6.22;2.95;;;;;;;30.23;40.35;97116.53;5056521;28;20203;-49
2022/05/20 08:58:55;;;;;;;4.32;3.15;;;;;;;30.07;39.79;97120.19;5056753;28;20199;-50
2022/05/20 09:01:29;;;;;;;3.40;3.10;;;;;;;30.05;41.44;97108.69;5056467;28;20643;-49
2022/05/20 09:03:55;;;;;;;5.53;3.90;;;;;;;30.07;41.87;97114.72;5051343;28;20207;-48
2022/05/20 09:06:22;;;;;;;5.75;3.63;;;;;;;30.19;40.00;97109.94;5056499;28;20227;-50
2022/05/20 09:09:08;;;;;;;3.50;3.20;;;;;;;30.64;39.33;97106.06;5056489;28;20214;-50
2022/05/20 09:11:35;;;;;;;4.65;3.05;;;;;;;30.47;39.65;97108.91;5056576;28;20246;-48
2022/05/20 09:16:57;;;;;;;3.75;3.42;;;;;;;30.78;40.39;97110.84;5050907;28;20206;-49
2022/05/20 09:19:27;;;;;;;3.50;3.20;;;;;;;31.17;40.13;97105.19;5056986;28;20273;-51
2022/05/20 09:22:01;;;;;;;3.72;3.42;;;;;;;31.00;38.88;97095.22;5055652;28;20207;-49
2022/05/20 09:24:36;;;;;;;3.42;3.17;;;;;;;30.88;38.32;97096.44;5052860;28;20628;-49
2022/05/20 09:27:06;;;;;;;4.93;3.20;;;;;;;31.08;40.39;97092.00;5056723;28;20235;-48
2022/05/20 09:29:34;;;;;;;5.13;3.90;;;;;;;31.06;39.52;97082.44;5056654;28;20218;-49
2022/05/20 09:32:03;;;;;;;4.93;3.47;;;;;;;30.69;40.42;97084.25;5056539;28;20642;-49
2022/05/20 09:34:32;;;;;;;4.93;3.40;;;;;;;30.88;38.99;97080.91;5056378;28;20546;-51
2022/05/20 09:37:00;;;;;;;5.25;3.50;;;;;;;30.91;40.32;97085.00;5056462;28;20206;-50
2022/05/20 09:39:31;;;;;;;5.10;3.30;;;;;;;31.05;40.62;97075.31;5055980;28;20199;-49
2022/05/20 09:42:01;;;;;;;5.30;3.65;;;;;;;30.86;38.46;97061.19;5056616;28;20596;-49
2022/05/20 09:44:36;;;;;;;3.78;3.33;;;;;;;30.99;41.57;97065.44;5043202;28;20287;-50
2022/05/20 09:47:20;;;;;;;4.10;3.28;;;;;;;31.41;42.57;97069.00;5052569;28;20211;-48
2022/05/20 09:49:52;;;;;;;6.57;3.42;;;;;;;31.46;38.75;97071.72;5056187;28;20272;-50
2022/05/20 09:52:27;;;;;;;3.63;3.15;;;;;;;31.38;40.56;97072.25;5056695;28;20268;-49
2022/05/20 09:55:01;;;;;;;5.13;3.50;;;;;;;31.24;39.31;97062.06;5056208;28;20210;-48
2022/05/20 09:57:34;;;;;;;4.30;3.60;;;;;;;31.43;38.70;97072.28;5055667;28;20210;-48
2022/05/20 10:00:06;;;;;;;3.83;3.33;;;;;;;31.28;38.94;97066.75;5043239;28;20568;-50
2022/05/20 10:02:35;;;;;;;8.73;3.50;;;;;;;31.22;39.74;97070.50;5054787;28;20650;-48
2022/05/20 10:05:12;;;;;;;7.07;3.30;;;;;;;31.46;40.22;97060.81;5054938;28;20211;-49
2022/05/20 10:07:52;;;;;;;4.07;3.63;;;;;;;31.47;39.62;97056.97;5054639;28;20234;-48
2022/05/20 10:10:35;;;;;;;3.50;3.20;;;;;;;31.60;40.48;97063.09;5054729;28;20207;-48
2022/05/20 10:13:03;;;;;;;4.20;3.80;;;;;;;31.52;38.55;97059.78;5048167;28;20214;-48
2022/05/20 10:15:34;;;;;;;6.70;3.70;;;;;;;31.34;38.07;97062.94;5055466;28;20513;-50
2022/05/20 10:18:07;;;;;;;5.68;3.30;;;;;;;31.15;39.80;97058.97;5055593;28;20210;-50
2022/05/20 10:20:36;;;;;;;3.67;3.22;;;;;;;30.71;38.60;97060.28;5055686;28;20203;-49
2022/05/20 10:23:08;;;;;;;4.50;3.63;;;;;;;30.19;42.03;97052.66;5059178;28;20210;-49
2022/05/20 10:25:39;;;;;;;4.30;3.58;;;;;;;30.06;41.01;97042.16;5044898;28;20258;-50
2022/05/20 10:32:33;;;;;;;4.28;3.80;;;;;;;30.19;43.19;97040.91;5055508;28;20218;-50
2022/05/20 10:33:46;;;;;;;5.90;3.47;;;;;;;30.97;40.88;97048.47;5055421;28;20206;-49
2022/05/20 10:36:19;;;;;;;5.63;3.67;;;;;;;31.19;40.63;97038.25;5055340;28;20203;-48
2022/05/20 10:39:10;;;;;;;3.67;3.38;;;;;;;31.62;41.92;97019.91;5042261;28;20231;-50
2022/05/20 10:41:49;;;;;;;3.67;3.35;;;;;;;31.94;40.16;96990.47;5044932;28;20651;-49
2022/05/20 10:50:11;;;;;;;3.80;3.28;;;;;;;32.63;38.62;96966.19;5042528;28;20210;-49
2022/05/20 10:53:01;;;;;;;3.38;3.17;;;;;;;32.46;38.08;96969.19;5055388;28;20195;-50
2022/05/20 10:55:40;;;;;;;4.80;3.38;;;;;;;32.95;37.14;96968.63;5055668;28;20574;-48
2022/05/20 10:58:49;;;;;;;4.57;3.45;;;;;;;32.93;37.53;96965.34;5054197;28;20222;-50
2022/05/20 11:01:20;;;;;;;3.40;3.10;;;;;;;32.70;38.36;96960.47;5055318;28;20199;-49
2022/05/20 11:04:22;;;;;;;3.60;3.30;;;;;;;32.45;33.47;96959.34;5056831;28;20206;-49
2022/05/20 11:07:08;;;;;;;3.58;3.28;;;;;;;32.52;34.37;96954.41;5047263;28;20237;-49
2022/05/20 11:09:41;;;;;;;5.32;3.47;;;;;;;32.48;36.23;96942.38;5054864;28;20221;-48
2022/05/20 11:12:13;;;;;;;3.65;3.33;;;;;;;32.36;33.83;96939.09;5047371;28;20206;-50
2022/05/20 11:14:55;;;;;;;4.22;3.15;;;;;;;32.24;32.25;96935.78;5054460;28;20230;-49
2022/05/20 11:17:53;;;;;;;4.35;2.92;;;;;;;31.91;35.20;96931.66;5054868;28;20660;-50
2022/05/20 11:20:30;;;;;;;6.32;2.92;;;;;;;31.63;34.94;96909.44;5053428;28;20203;-49
2022/05/20 11:23:06;;;;;;;3.60;2.75;;;;;;;31.36;33.64;96910.41;5054341;28;20635;-50
2022/05/20 11:26:07;;;;;;;3.40;3.08;;;;;;;31.71;36.35;96915.19;5054481;28;20619;-48
2022/05/20 11:28:43;;;;;;;2.85;2.65;;;;;;;31.86;36.90;96928.91;5020877;28;20207;-48
2022/05/20 11:31:20;;;;;;;3.92;3.00;;;;;;;32.00;36.19;96930.00;5034597;28;20644;-49
2022/05/20 11:33:54;;;;;;;3.97;3.05;;;;;;;32.35;34.92;96914.72;5043949;28;20206;-49
2022/05/20 11:36:45;;;;;;;3.65;3.35;;;;;;;32.45;35.43;96917.47;5052865;28;20260;-48
2022/05/20 11:39:26;;;;;;;4.80;3.42;;;;;;;32.58;35.16;96916.06;5054366;28;20214;-50
2022/05/20 11:42:03;;;;;;;4.50;3.30;;;;;;;32.77;33.13;96901.53;5052555;28;20206;-49
2022/05/20 11:44:42;;;;;;;3.42;3.13;;;;;;;32.76;35.27;96899.09;5054442;28;20760;-50
2022/05/20 11:47:35;;;;;;;4.03;3.60;;;;;;;33.08;35.45;96901.47;5054538;28;20233;-50
2022/05/20 11:50:20;;;;;;;6.53;3.20;;;;;;;33.24;33.76;96895.66;5052229;28;20265;-48
2022/05/20 11:52:52;;;;;;;3.45;3.15;;;;;;;33.34;32.05;96884.63;5053890;28;20631;-50
2022/05/20 11:55:21;;;;;;;5.25;3.25;;;;;;;33.38;33.70;96874.75;5054595;28;20207;-49
2022/05/20 11:57:52;;;;;;;3.15;2.92;;;;;;;33.57;32.92;96876.84;5053969;28;20632;-49
2022/05/20 12:00:21;;;;;;;4.20;3.35;;;;;;;33.32;33.17;96875.88;5054362;28;20203;-49
2022/05/20 12:02:51;;;;;;;4.47;3.10;;;;;;;33.21;31.67;96867.97;5054346;28;20349;-49
2022/05/20 12:05:21;;;;;;;3.28;2.97;;;;;;;33.53;33.07;96869.19;5054177;28;20536;-49
2022/05/20 12:07:48;;;;;;;5.60;3.10;;;;;;;33.66;31.13;96859.53;5048320;28;20219;-48
2022/05/20 12:10:47;;;;;;;6.13;3.33;;;;;;;33.75;32.92;96857.00;5046841;28;20226;-49
2022/05/20 12:13:18;;;;;;;4.38;3.38;;;;;;;33.58;30.78;96848.31;5047596;28;20204;-49
2022/05/20 12:15:47;;;;;;;5.55;3.17;;;;;;;33.36;33.10;96838.56;5053126;28;20195;-50
2022/05/20 12:24:32;;;;;;;5.80;2.95;;;;;;;33.24;33.15;96820.81;5054037;28;20205;-50
2022/05/20 12:27:01;;;;;;;3.58;3.28;;;;;;;33.41;32.96;96827.56;5053705;28;20235;-49
2022/05/20 12:30:05;;;;;;;4.47;3.50;;;;;;;33.48;31.67;96814.34;5054450;28;20682;-49
2022/05/20 12:32:44;;;;;;;3.53;3.03;;;;;;;33.07;33.18;96807.44;5068688;28;20233;-48